sensor_id;sensor_type;location;lat;lon;timestamp;temperature;humidity
5842;DHT22;2947;52.276;9.946;2023-05-07T00:00:36;10.60;32.10
5842;DHT22;2947;52.276;9.946;2023-05-07T00:03:03;10.60;52.90
5842;DHT22;2947;52.276;9.946;2023-05-07T00:05:28;10.50;46.00
5842;DHT22;2947;52.276;9.946;2023-05-07T00:07:55;10.60;54.90
5842;DHT22;2947;52.276;9.946;2023-05-07T00:10:20;10.60;50.00
5842;DHT22;2947;52.276;9.946;2023-05-07T00:12:46;10.60;37.00
5842;DHT22;2947;52.276;9.946;2023-05-07T00:15:12;10.50;36.70
5842;DHT22;2947;52.276;9.946;2023-05-07T00:17:37;10.50;54.10
5842;DHT22;2947;52.276;9.946;2023-05-07T00:20:04;10.50;79.40
5842;DHT22;2947;52.276;9.946;2023-05-07T00:22:31;10.50;82.30
5842;DHT22;2947;52.276;9.946;2023-05-07T00:24:57;10.40;90.80
5842;DHT22;2947;52.276;9.946;2023-05-07T00:27:24;10.40;99.90
5842;DHT22;2947;52.276;9.946;2023-05-07T00:29:50;10.40;99.90
5842;DHT22;2947;52.276;9.946;2023-05-07T00:32:16;10.40;99.90
5842;DHT22;2947;52.276;9.946;2023-05-07T00:34:43;10.40;99.90
5842;DHT22;2947;52.276;9.946;2023-05-07T00:37:08;10.40;99.90
5842;DHT22;2947;52.276;9.946;2023-05-07T00:39:35;10.40;99.90
5842;DHT22;2947;52.276;9.946;2023-05-07T00:42:01;10.30;99.90
5842;DHT22;2947;52.276;9.946;2023-05-07T00:44:28;10.40;99.90
5842;DHT22;2947;52.276;9.946;2023-05-07T00:46:56;10.40;99.90
5842;DHT22;2947;52.276;9.946;2023-05-07T00:49:25;10.30;99.90
5842;DHT22;2947;52.276;9.946;2023-05-07T00:52:01;10.30;99.90
5842;DHT22;2947;52.276;9.946;2023-05-07T00:54:27;10.30;99.90
5842;DHT22;2947;52.276;9.946;2023-05-07T00:56:54;10.20;99.90
5842;DHT22;2947;52.276;9.946;2023-05-07T00:59:20;10.30;99.90
5842;DHT22;2947;52.276;9.946;2023-05-07T01:01:45;10.20;99.90
5842;DHT22;2947;52.276;9.946;2023-05-07T01:04:11;10.20;99.90
5842;DHT22;2947;52.276;9.946;2023-05-07T01:06:37;10.20;99.90
5842;DHT22;2947;52.276;9.946;2023-05-07T01:09:04;10.20;99.90
5842;DHT22;2947;52.276;9.946;2023-05-07T01:11:30;10.30;99.90
5842;DHT22;2947;52.276;9.946;2023-05-07T01:13:57;10.20;99.90
5842;DHT22;2947;52.276;9.946;2023-05-07T01:16:24;10.20;99.90
5842;DHT22;2947;52.276;9.946;2023-05-07T01:18:50;10.20;99.90
5842;DHT22;2947;52.276;9.946;2023-05-07T01:21:17;10.20;99.90
5842;DHT22;2947;52.276;9.946;2023-05-07T01:23:44;10.20;99.90
5842;DHT22;2947;52.276;9.946;2023-05-07T01:26:10;10.20;98.90
5842;DHT22;2947;52.276;9.946;2023-05-07T01:28:36;10.20;99.90
5842;DHT22;2947;52.276;9.946;2023-05-07T01:31:03;10.20;91.60
5842;DHT22;2947;52.276;9.946;2023-05-07T01:33:33;10.20;62.50
5842;DHT22;2947;52.276;9.946;2023-05-07T01:36:00;10.20;90.80
5842;DHT22;2947;52.276;9.946;2023-05-07T01:38:29;10.20;59.70
5842;DHT22;2947;52.276;9.946;2023-05-07T01:40:55;10.20;45.90
5842;DHT22;2947;52.276;9.946;2023-05-07T01:43:21;10.20;36.70
5842;DHT22;2947;52.276;9.946;2023-05-07T01:45:47;10.20;30.00
5842;DHT22;2947;52.276;9.946;2023-05-07T01:48:15;10.20;11.40
5842;DHT22;2947;52.276;9.946;2023-05-07T01:50:42;10.20;14.00
5842;DHT22;2947;52.276;9.946;2023-05-07T01:53:08;10.30;15.50
5842;DHT22;2947;52.276;9.946;2023-05-07T01:55:34;10.20;2.90
5842;DHT22;2947;52.276;9.946;2023-05-07T01:58:02;10.20;1.00
5842;DHT22;2947;52.276;9.946;2023-05-07T02:00:28;10.20;1.00
5842;DHT22;2947;52.276;9.946;2023-05-07T02:02:54;10.20;1.70
5842;DHT22;2947;52.276;9.946;2023-05-07T02:05:20;10.20;1.00
5842;DHT22;2947;52.276;9.946;2023-05-07T02:07:45;10.20;1.00
5842;DHT22;2947;52.276;9.946;2023-05-07T02:10:11;10.20;1.00
5842;DHT22;2947;52.276;9.946;2023-05-07T02:12:37;10.20;1.00
5842;DHT22;2947;52.276;9.946;2023-05-07T02:15:02;10.20;1.00
5842;DHT22;2947;52.276;9.946;2023-05-07T02:17:28;10.20;1.00
5842;DHT22;2947;52.276;9.946;2023-05-07T02:19:57;10.20;1.00
5842;DHT22;2947;52.276;9.946;2023-05-07T02:22:22;10.20;1.00
5842;DHT22;2947;52.276;9.946;2023-05-07T02:24:48;10.20;1.00
5842;DHT22;2947;52.276;9.946;2023-05-07T02:27:14;10.10;1.00
5842;DHT22;2947;52.276;9.946;2023-05-07T02:29:40;10.20;1.00
5842;DHT22;2947;52.276;9.946;2023-05-07T02:32:06;10.20;1.00
5842;DHT22;2947;52.276;9.946;2023-05-07T02:34:31;10.10;12.80
5842;DHT22;2947;52.276;9.946;2023-05-07T02:36:57;10.10;8.50
5842;DHT22;2947;52.276;9.946;2023-05-07T02:39:23;10.20;8.90
5842;DHT22;2947;52.276;9.946;2023-05-07T02:41:48;10.20;10.00
5842;DHT22;2947;52.276;9.946;2023-05-07T02:44:14;10.20;10.70
5842;DHT22;2947;52.276;9.946;2023-05-07T02:46:40;10.20;5.70
5842;DHT22;2947;52.276;9.946;2023-05-07T02:49:05;10.20;1.00
5842;DHT22;2947;52.276;9.946;2023-05-07T02:51:31;10.10;1.00
5842;DHT22;2947;52.276;9.946;2023-05-07T02:53:57;10.10;1.00
5842;DHT22;2947;52.276;9.946;2023-05-07T02:56:25;10.10;1.00
5842;DHT22;2947;52.276;9.946;2023-05-07T02:58:51;10.10;7.60
5842;DHT22;2947;52.276;9.946;2023-05-07T03:01:17;10.20;8.80
5842;DHT22;2947;52.276;9.946;2023-05-07T03:03:43;10.10;19.70
5842;DHT22;2947;52.276;9.946;2023-05-07T03:06:09;10.10;20.10
5842;DHT22;2947;52.276;9.946;2023-05-07T03:08:35;10.10;25.20
5842;DHT22;2947;52.276;9.946;2023-05-07T03:11:02;10.10;34.10
5842;DHT22;2947;52.276;9.946;2023-05-07T03:13:27;10.10;29.40
5842;DHT22;2947;52.276;9.946;2023-05-07T03:15:53;10.10;26.80
5842;DHT22;2947;52.276;9.946;2023-05-07T03:18:19;10.10;36.10
5842;DHT22;2947;52.276;9.946;2023-05-07T03:20:44;10.00;37.90
5842;DHT22;2947;52.276;9.946;2023-05-07T03:23:10;10.00;43.10
5842;DHT22;2947;52.276;9.946;2023-05-07T03:25:36;10.00;58.00
5842;DHT22;2947;52.276;9.946;2023-05-07T03:28:01;10.00;84.30
5842;DHT22;2947;52.276;9.946;2023-05-07T03:30:27;10.00;90.00
5842;DHT22;2947;52.276;9.946;2023-05-07T03:32:53;9.90;79.40
5842;DHT22;2947;52.276;9.946;2023-05-07T03:35:18;9.90;83.40
5842;DHT22;2947;52.276;9.946;2023-05-07T03:37:44;9.80;71.50
5842;DHT22;2947;52.276;9.946;2023-05-07T03:40:10;9.90;93.90
5842;DHT22;2947;52.276;9.946;2023-05-07T03:42:37;9.90;99.30
5842;DHT22;2947;52.276;9.946;2023-05-07T03:45:03;9.80;99.90
5842;DHT22;2947;52.276;9.946;2023-05-07T03:47:29;9.90;99.90
5842;DHT22;2947;52.276;9.946;2023-05-07T03:49:55;9.80;97.80
5842;DHT22;2947;52.276;9.946;2023-05-07T03:52:21;9.80;99.90
5842;DHT22;2947;52.276;9.946;2023-05-07T03:54:51;9.80;99.90
5842;DHT22;2947;52.276;9.946;2023-05-07T03:57:18;9.80;99.90
5842;DHT22;2947;52.276;9.946;2023-05-07T03:59:43;9.80;98.60
5842;DHT22;2947;52.276;9.946;2023-05-07T04:02:09;9.80;99.90
5842;DHT22;2947;52.276;9.946;2023-05-07T04:04:35;9.80;99.90
5842;DHT22;2947;52.276;9.946;2023-05-07T04:07:00;9.80;99.90
5842;DHT22;2947;52.276;9.946;2023-05-07T04:09:26;9.80;99.90
5842;DHT22;2947;52.276;9.946;2023-05-07T04:11:52;9.70;99.90
5842;DHT22;2947;52.276;9.946;2023-05-07T04:14:18;9.80;99.90
5842;DHT22;2947;52.276;9.946;2023-05-07T04:16:43;9.80;87.40
5842;DHT22;2947;52.276;9.946;2023-05-07T04:19:09;9.80;67.40
5842;DHT22;2947;52.276;9.946;2023-05-07T04:21:34;9.80;63.40
5842;DHT22;2947;52.276;9.946;2023-05-07T04:24:00;9.80;46.50
5842;DHT22;2947;52.276;9.946;2023-05-07T04:26:27;9.80;47.00
5842;DHT22;2947;52.276;9.946;2023-05-07T04:28:53;9.80;53.90
5842;DHT22;2947;52.276;9.946;2023-05-07T04:31:19;9.80;80.00
5842;DHT22;2947;52.276;9.946;2023-05-07T04:33:45;9.70;74.00
5842;DHT22;2947;52.276;9.946;2023-05-07T04:36:10;9.70;59.90
5842;DHT22;2947;52.276;9.946;2023-05-07T04:38:36;9.80;47.30
5842;DHT22;2947;52.276;9.946;2023-05-07T04:41:05;9.80;57.40
5842;DHT22;2947;52.276;9.946;2023-05-07T04:43:31;9.70;78.00
5842;DHT22;2947;52.276;9.946;2023-05-07T04:45:57;9.80;78.80
5842;DHT22;2947;52.276;9.946;2023-05-07T04:48:23;9.80;60.60
5842;DHT22;2947;52.276;9.946;2023-05-07T04:50:49;9.80;58.60
5842;DHT22;2947;52.276;9.946;2023-05-07T04:53:16;9.80;58.10
5842;DHT22;2947;52.276;9.946;2023-05-07T04:55:43;9.80;49.40
5842;DHT22;2947;52.276;9.946;2023-05-07T04:58:09;9.70;37.50
5842;DHT22;2947;52.276;9.946;2023-05-07T05:00:34;9.80;36.70
5842;DHT22;2947;52.276;9.946;2023-05-07T05:03:00;9.80;18.80
5842;DHT22;2947;52.276;9.946;2023-05-07T05:05:26;9.80;4.20
5842;DHT22;2947;52.276;9.946;2023-05-07T05:07:52;9.80;1.00
5842;DHT22;2947;52.276;9.946;2023-05-07T05:10:18;9.90;1.00
5842;DHT22;2947;52.276;9.946;2023-05-07T05:12:44;9.80;1.00
5842;DHT22;2947;52.276;9.946;2023-05-07T05:15:11;9.90;1.00
5842;DHT22;2947;52.276;9.946;2023-05-07T05:17:38;9.90;1.00
5842;DHT22;2947;52.276;9.946;2023-05-07T05:20:04;9.90;1.00
5842;DHT22;2947;52.276;9.946;2023-05-07T05:22:31;9.90;1.00
5842;DHT22;2947;52.276;9.946;2023-05-07T05:24:57;9.90;1.00
5842;DHT22;2947;52.276;9.946;2023-05-07T05:27:24;9.90;1.00
5842;DHT22;2947;52.276;9.946;2023-05-07T05:29:50;9.80;1.00
5842;DHT22;2947;52.276;9.946;2023-05-07T05:32:15;9.90;1.00
5842;DHT22;2947;52.276;9.946;2023-05-07T05:34:41;9.90;1.00
5842;DHT22;2947;52.276;9.946;2023-05-07T05:37:07;9.90;1.00
5842;DHT22;2947;52.276;9.946;2023-05-07T05:39:32;9.90;1.00
5842;DHT22;2947;52.276;9.946;2023-05-07T05:41:58;10.00;1.00
5842;DHT22;2947;52.276;9.946;2023-05-07T05:44:24;10.00;1.00
5842;DHT22;2947;52.276;9.946;2023-05-07T05:46:50;9.90;1.00
5842;DHT22;2947;52.276;9.946;2023-05-07T05:49:16;10.00;1.00
5842;DHT22;2947;52.276;9.946;2023-05-07T05:51:42;10.00;1.00
5842;DHT22;2947;52.276;9.946;2023-05-07T05:54:08;10.00;1.00
5842;DHT22;2947;52.276;9.946;2023-05-07T05:56:34;10.00;1.00
5842;DHT22;2947;52.276;9.946;2023-05-07T05:59:00;10.10;1.00
5842;DHT22;2947;52.276;9.946;2023-05-07T06:01:26;10.10;1.00
5842;DHT22;2947;52.276;9.946;2023-05-07T06:03:52;10.10;1.00
5842;DHT22;2947;52.276;9.946;2023-05-07T06:06:17;10.10;1.00
5842;DHT22;2947;52.276;9.946;2023-05-07T06:08:43;10.10;1.00
5842;DHT22;2947;52.276;9.946;2023-05-07T06:11:09;10.10;1.00
5842;DHT22;2947;52.276;9.946;2023-05-07T06:13:34;10.10;1.00
5842;DHT22;2947;52.276;9.946;2023-05-07T06:16:00;10.10;1.00
5842;DHT22;2947;52.276;9.946;2023-05-07T06:18:26;10.10;1.00
5842;DHT22;2947;52.276;9.946;2023-05-07T06:20:52;10.10;1.00
5842;DHT22;2947;52.276;9.946;2023-05-07T06:23:18;10.20;1.00
5842;DHT22;2947;52.276;9.946;2023-05-07T06:25:50;10.20;1.00
5842;DHT22;2947;52.276;9.946;2023-05-07T06:28:16;10.30;1.00
5842;DHT22;2947;52.276;9.946;2023-05-07T06:30:42;10.30;1.00
5842;DHT22;2947;52.276;9.946;2023-05-07T06:33:08;10.30;1.00
5842;DHT22;2947;52.276;9.946;2023-05-07T06:35:34;10.30;1.00
5842;DHT22;2947;52.276;9.946;2023-05-07T06:38:00;10.30;1.00
5842;DHT22;2947;52.276;9.946;2023-05-07T06:40:26;10.30;99.90
5842;DHT22;2947;52.276;9.946;2023-05-07T06:42:52;10.30;99.90
5842;DHT22;2947;52.276;9.946;2023-05-07T06:45:19;10.30;99.90
5842;DHT22;2947;52.276;9.946;2023-05-07T06:47:45;10.40;99.90
5842;DHT22;2947;52.276;9.946;2023-05-07T06:50:11;10.50;99.90
5842;DHT22;2947;52.276;9.946;2023-05-07T06:52:37;10.50;99.90
5842;DHT22;2947;52.276;9.946;2023-05-07T06:55:03;10.50;99.90
5842;DHT22;2947;52.276;9.946;2023-05-07T06:57:29;10.60;99.90
5842;DHT22;2947;52.276;9.946;2023-05-07T06:59:55;10.60;99.90
5842;DHT22;2947;52.276;9.946;2023-05-07T07:02:21;10.60;99.90
5842;DHT22;2947;52.276;9.946;2023-05-07T07:04:46;10.60;75.60
5842;DHT22;2947;52.276;9.946;2023-05-07T07:07:12;10.60;99.90
5842;DHT22;2947;52.276;9.946;2023-05-07T07:09:38;10.70;1.00
5842;DHT22;2947;52.276;9.946;2023-05-07T07:12:03;10.80;1.00
5842;DHT22;2947;52.276;9.946;2023-05-07T07:14:29;10.80;99.90
5842;DHT22;2947;52.276;9.946;2023-05-07T07:16:55;10.80;99.90
5842;DHT22;2947;52.276;9.946;2023-05-07T07:19:21;10.90;99.90
5842;DHT22;2947;52.276;9.946;2023-05-07T07:21:46;10.90;99.90
5842;DHT22;2947;52.276;9.946;2023-05-07T07:24:13;10.90;1.00
5842;DHT22;2947;52.276;9.946;2023-05-07T07:26:44;11.00;1.00
5842;DHT22;2947;52.276;9.946;2023-05-07T07:29:10;11.00;99.90
5842;DHT22;2947;52.276;9.946;2023-05-07T07:31:35;11.00;1.00
5842;DHT22;2947;52.276;9.946;2023-05-07T07:34:01;11.00;1.00
5842;DHT22;2947;52.276;9.946;2023-05-07T07:36:27;11.00;99.90
5842;DHT22;2947;52.276;9.946;2023-05-07T07:38:53;11.00;99.90
5842;DHT22;2947;52.276;9.946;2023-05-07T07:41:19;11.10;99.90
5842;DHT22;2947;52.276;9.946;2023-05-07T07:43:48;11.10;1.00
5842;DHT22;2947;52.276;9.946;2023-05-07T07:46:14;11.10;1.00
5842;DHT22;2947;52.276;9.946;2023-05-07T07:48:40;11.10;99.90
5842;DHT22;2947;52.276;9.946;2023-05-07T07:51:06;11.10;99.90
5842;DHT22;2947;52.276;9.946;2023-05-07T07:53:31;11.10;1.00
5842;DHT22;2947;52.276;9.946;2023-05-07T07:55:57;11.20;99.90
5842;DHT22;2947;52.276;9.946;2023-05-07T07:58:23;11.20;1.00
5842;DHT22;2947;52.276;9.946;2023-05-07T08:00:50;11.20;34.10
5842;DHT22;2947;52.276;9.946;2023-05-07T08:03:16;11.20;1.00
5842;DHT22;2947;52.276;9.946;2023-05-07T08:05:42;11.30;99.90
5842;DHT22;2947;52.276;9.946;2023-05-07T08:08:08;11.40;1.00
5842;DHT22;2947;52.276;9.946;2023-05-07T08:10:34;11.40;99.90
5842;DHT22;2947;52.276;9.946;2023-05-07T08:13:03;11.40;99.90
5842;DHT22;2947;52.276;9.946;2023-05-07T08:15:29;11.50;99.90
5842;DHT22;2947;52.276;9.946;2023-05-07T08:17:55;11.50;16.60
5842;DHT22;2947;52.276;9.946;2023-05-07T08:20:23;11.50;10.80
5842;DHT22;2947;52.276;9.946;2023-05-07T08:22:49;11.50;1.00
5842;DHT22;2947;52.276;9.946;2023-05-07T08:25:15;11.50;1.00
5842;DHT22;2947;52.276;9.946;2023-05-07T08:27:40;11.60;99.90
5842;DHT22;2947;52.276;9.946;2023-05-07T08:30:07;11.60;99.90
5842;DHT22;2947;52.276;9.946;2023-05-07T08:32:36;11.60;1.00
5842;DHT22;2947;52.276;9.946;2023-05-07T08:35:02;11.60;1.00
5842;DHT22;2947;52.276;9.946;2023-05-07T08:37:27;11.60;1.00
5842;DHT22;2947;52.276;9.946;2023-05-07T08:39:53;11.70;99.90
5842;DHT22;2947;52.276;9.946;2023-05-07T08:42:20;11.70;1.00
5842;DHT22;2947;52.276;9.946;2023-05-07T08:44:51;11.70;7.80
5842;DHT22;2947;52.276;9.946;2023-05-07T08:47:18;11.80;1.00
5842;DHT22;2947;52.276;9.946;2023-05-07T08:49:44;11.80;1.00
5842;DHT22;2947;52.276;9.946;2023-05-07T08:52:12;11.90;1.00
5842;DHT22;2947;52.276;9.946;2023-05-07T08:54:38;11.90;99.90
5842;DHT22;2947;52.276;9.946;2023-05-07T08:57:04;11.90;1.00
5842;DHT22;2947;52.276;9.946;2023-05-07T08:59:30;12.00;99.90
5842;DHT22;2947;52.276;9.946;2023-05-07T09:01:56;11.70;99.90
5842;DHT22;2947;52.276;9.946;2023-05-07T09:04:21;12.10;99.90
5842;DHT22;2947;52.276;9.946;2023-05-07T09:06:47;12.10;99.90
5842;DHT22;2947;52.276;9.946;2023-05-07T09:09:17;12.10;99.90
5842;DHT22;2947;52.276;9.946;2023-05-07T09:11:44;12.10;99.90
5842;DHT22;2947;52.276;9.946;2023-05-07T09:14:09;12.10;99.90
5842;DHT22;2947;52.276;9.946;2023-05-07T09:16:35;12.30;1.00
5842;DHT22;2947;52.276;9.946;2023-05-07T09:19:01;12.30;11.30
5842;DHT22;2947;52.276;9.946;2023-05-07T09:21:27;12.30;99.90
5842;DHT22;2947;52.276;9.946;2023-05-07T09:23:54;12.30;1.00
5842;DHT22;2947;52.276;9.946;2023-05-07T09:26:24;12.40;99.90
5842;DHT22;2947;52.276;9.946;2023-05-07T09:28:51;12.50;1.00
5842;DHT22;2947;52.276;9.946;2023-05-07T09:31:17;12.50;1.00
5842;DHT22;2947;52.276;9.946;2023-05-07T09:33:43;12.40;1.00
5842;DHT22;2947;52.276;9.946;2023-05-07T09:36:09;12.50;1.00
5842;DHT22;2947;52.276;9.946;2023-05-07T09:38:36;12.60;99.90
5842;DHT22;2947;52.276;9.946;2023-05-07T09:41:07;12.60;99.90
5842;DHT22;2947;52.276;9.946;2023-05-07T09:43:37;12.60;26.90
5842;DHT22;2947;52.276;9.946;2023-05-07T09:46:12;12.70;99.90
5842;DHT22;2947;52.276;9.946;2023-05-07T09:48:41;12.70;1.00
5842;DHT22;2947;52.276;9.946;2023-05-07T09:51:25;13.70;1.00
5842;DHT22;2947;52.276;9.946;2023-05-07T09:53:54;12.70;1.00
5842;DHT22;2947;52.276;9.946;2023-05-07T09:56:21;12.80;1.00
5842;DHT22;2947;52.276;9.946;2023-05-07T09:58:49;12.80;1.00
5842;DHT22;2947;52.276;9.946;2023-05-07T10:01:17;12.80;99.90
5842;DHT22;2947;52.276;9.946;2023-05-07T10:03:45;12.70;99.90
5842;DHT22;2947;52.276;9.946;2023-05-07T10:06:13;12.70;1.00
5842;DHT22;2947;52.276;9.946;2023-05-07T10:08:40;12.80;1.00
5842;DHT22;2947;52.276;9.946;2023-05-07T10:11:06;12.80;99.90
5842;DHT22;2947;52.276;9.946;2023-05-07T10:13:33;12.80;99.90
5842;DHT22;2947;52.276;9.946;2023-05-07T10:16:06;12.90;99.90
5842;DHT22;2947;52.276;9.946;2023-05-07T10:18:32;12.90;99.90
5842;DHT22;2947;52.276;9.946;2023-05-07T10:21:11;13.00;99.90
5842;DHT22;2947;52.276;9.946;2023-05-07T10:23:40;13.00;99.90
5842;DHT22;2947;52.276;9.946;2023-05-07T10:26:07;12.90;99.90
5842;DHT22;2947;52.276;9.946;2023-05-07T10:28:40;13.00;99.90
5842;DHT22;2947;52.276;9.946;2023-05-07T10:31:31;13.00;96.10
5842;DHT22;2947;52.276;9.946;2023-05-07T10:34:02;13.00;99.90
5842;DHT22;2947;52.276;9.946;2023-05-07T10:36:34;13.00;1.00
5842;DHT22;2947;52.276;9.946;2023-05-07T10:39:00;13.00;1.00
5842;DHT22;2947;52.276;9.946;2023-05-07T10:41:26;13.00;21.10
5842;DHT22;2947;52.276;9.946;2023-05-07T10:43:51;13.00;1.00
5842;DHT22;2947;52.276;9.946;2023-05-07T10:46:19;13.10;42.50
5842;DHT22;2947;52.276;9.946;2023-05-07T10:51:26;13.10;1.00
5842;DHT22;2947;52.276;9.946;2023-05-07T10:56:41;13.00;1.00
5842;DHT22;2947;52.276;9.946;2023-05-07T11:02:00;13.10;1.00
5842;DHT22;2947;52.276;9.946;2023-05-07T11:04:29;13.20;1.00
5842;DHT22;2947;52.276;9.946;2023-05-07T11:12:17;13.20;1.00
5842;DHT22;2947;52.276;9.946;2023-05-07T11:15:39;13.10;1.00
5842;DHT22;2947;52.276;9.946;2023-05-07T11:18:08;13.10;1.00
5842;DHT22;2947;52.276;9.946;2023-05-07T11:26:04;13.00;1.00
5842;DHT22;2947;52.276;9.946;2023-05-07T11:28:31;13.00;1.00
5842;DHT22;2947;52.276;9.946;2023-05-07T11:31:02;13.20;1.00
5842;DHT22;2947;52.276;9.946;2023-05-07T11:33:30;13.10;1.00
5842;DHT22;2947;52.276;9.946;2023-05-07T11:35:57;13.20;1.00
5842;DHT22;2947;52.276;9.946;2023-05-07T11:38:22;13.20;1.00
5842;DHT22;2947;52.276;9.946;2023-05-07T11:40:56;13.40;1.00
5842;DHT22;2947;52.276;9.946;2023-05-07T11:43:22;13.40;99.90
5842;DHT22;2947;52.276;9.946;2023-05-07T11:45:49;13.30;99.90
5842;DHT22;2947;52.276;9.946;2023-05-07T11:48:16;13.50;99.90
5842;DHT22;2947;52.276;9.946;2023-05-07T11:51:14;13.70;1.00
5842;DHT22;2947;52.276;9.946;2023-05-07T11:53:45;13.70;99.90
5842;DHT22;2947;52.276;9.946;2023-05-07T11:56:12;13.80;99.90
5842;DHT22;2947;52.276;9.946;2023-05-07T11:58:40;13.90;99.90
5842;DHT22;2947;52.276;9.946;2023-05-07T12:01:09;14.00;99.90
5842;DHT22;2947;52.276;9.946;2023-05-07T12:03:36;14.10;99.90
5842;DHT22;2947;52.276;9.946;2023-05-07T12:06:05;14.10;99.90
5842;DHT22;2947;52.276;9.946;2023-05-07T12:08:31;14.10;99.90
5842;DHT22;2947;52.276;9.946;2023-05-07T12:10:57;14.20;99.90
5842;DHT22;2947;52.276;9.946;2023-05-07T12:13:24;14.30;99.90
5842;DHT22;2947;52.276;9.946;2023-05-07T12:15:55;14.40;99.90
5842;DHT22;2947;52.276;9.946;2023-05-07T12:18:22;14.50;99.90
5842;DHT22;2947;52.276;9.946;2023-05-07T12:20:48;14.40;99.90
5842;DHT22;2947;52.276;9.946;2023-05-07T12:23:15;14.40;89.80
5842;DHT22;2947;52.276;9.946;2023-05-07T12:25:42;14.40;16.90
5842;DHT22;2947;52.276;9.946;2023-05-07T12:28:16;14.40;10.10
5842;DHT22;2947;52.276;9.946;2023-05-07T12:30:44;14.30;1.00
5842;DHT22;2947;52.276;9.946;2023-05-07T12:33:11;14.30;1.00
5842;DHT22;2947;52.276;9.946;2023-05-07T12:35:41;14.40;2.20
5842;DHT22;2947;52.276;9.946;2023-05-07T12:38:13;14.30;1.00
5842;DHT22;2947;52.276;9.946;2023-05-07T12:40:45;14.30;1.00
5842;DHT22;2947;52.276;9.946;2023-05-07T12:43:34;14.30;4.40
5842;DHT22;2947;52.276;9.946;2023-05-07T12:46:03;14.40;1.00
5842;DHT22;2947;52.276;9.946;2023-05-07T12:48:30;14.30;1.00
5842;DHT22;2947;52.276;9.946;2023-05-07T12:50:57;14.30;1.00
5842;DHT22;2947;52.276;9.946;2023-05-07T12:53:26;14.30;1.00
5842;DHT22;2947;52.276;9.946;2023-05-07T12:55:54;14.30;1.00
5842;DHT22;2947;52.276;9.946;2023-05-07T12:58:24;14.20;1.00
5842;DHT22;2947;52.276;9.946;2023-05-07T13:00:59;14.20;1.00
5842;DHT22;2947;52.276;9.946;2023-05-07T13:03:28;14.20;1.00
5842;DHT22;2947;52.276;9.946;2023-05-07T13:05:56;14.20;1.00
5842;DHT22;2947;52.276;9.946;2023-05-07T13:08:32;14.20;1.00
5842;DHT22;2947;52.276;9.946;2023-05-07T13:11:00;14.20;1.00
5842;DHT22;2947;52.276;9.946;2023-05-07T13:13:31;14.30;1.00
5842;DHT22;2947;52.276;9.946;2023-05-07T13:15:57;14.40;1.00
5842;DHT22;2947;52.276;9.946;2023-05-07T13:18:25;14.40;1.00
5842;DHT22;2947;52.276;9.946;2023-05-07T13:20:51;14.40;1.00
5842;DHT22;2947;52.276;9.946;2023-05-07T13:23:18;14.40;1.00
5842;DHT22;2947;52.276;9.946;2023-05-07T13:25:44;14.40;1.00
5842;DHT22;2947;52.276;9.946;2023-05-07T13:28:09;14.50;1.00
5842;DHT22;2947;52.276;9.946;2023-05-07T13:30:35;14.40;1.00
5842;DHT22;2947;52.276;9.946;2023-05-07T13:33:01;14.50;1.00
5842;DHT22;2947;52.276;9.946;2023-05-07T13:35:27;14.40;1.00
5842;DHT22;2947;52.276;9.946;2023-05-07T13:37:53;14.40;1.00
5842;DHT22;2947;52.276;9.946;2023-05-07T13:40:23;14.40;1.00
5842;DHT22;2947;52.276;9.946;2023-05-07T13:42:49;14.40;1.00
5842;DHT22;2947;52.276;9.946;2023-05-07T13:45:15;14.50;1.00
5842;DHT22;2947;52.276;9.946;2023-05-07T13:47:41;14.60;1.00
5842;DHT22;2947;52.276;9.946;2023-05-07T13:50:11;14.50;1.00
5842;DHT22;2947;52.276;9.946;2023-05-07T13:52:41;14.60;1.00
5842;DHT22;2947;52.276;9.946;2023-05-07T13:55:09;14.60;1.00
5842;DHT22;2947;52.276;9.946;2023-05-07T13:57:36;14.60;1.00
5842;DHT22;2947;52.276;9.946;2023-05-07T14:00:03;14.60;1.00
5842;DHT22;2947;52.276;9.946;2023-05-07T14:02:30;14.50;1.00
5842;DHT22;2947;52.276;9.946;2023-05-07T14:04:56;14.60;1.00
5842;DHT22;2947;52.276;9.946;2023-05-07T14:07:22;14.60;1.00
5842;DHT22;2947;52.276;9.946;2023-05-07T14:09:48;14.50;1.00
5842;DHT22;2947;52.276;9.946;2023-05-07T14:12:14;14.50;1.00
5842;DHT22;2947;52.276;9.946;2023-05-07T14:14:39;14.60;1.00
5842;DHT22;2947;52.276;9.946;2023-05-07T14:17:05;14.60;1.00
5842;DHT22;2947;52.276;9.946;2023-05-07T14:19:31;14.60;1.00
5842;DHT22;2947;52.276;9.946;2023-05-07T14:21:56;14.60;1.00
5842;DHT22;2947;52.276;9.946;2023-05-07T14:24:23;14.70;1.00
5842;DHT22;2947;52.276;9.946;2023-05-07T14:26:49;14.80;1.00
5842;DHT22;2947;52.276;9.946;2023-05-07T14:29:15;14.80;1.00
5842;DHT22;2947;52.276;9.946;2023-05-07T14:31:44;14.70;1.00
5842;DHT22;2947;52.276;9.946;2023-05-07T14:34:10;14.70;1.00
5842;DHT22;2947;52.276;9.946;2023-05-07T14:36:36;14.70;1.00
5842;DHT22;2947;52.276;9.946;2023-05-07T14:39:03;14.70;1.00
5842;DHT22;2947;52.276;9.946;2023-05-07T14:41:29;14.70;1.00
5842;DHT22;2947;52.276;9.946;2023-05-07T14:43:55;14.60;1.00
5842;DHT22;2947;52.276;9.946;2023-05-07T14:46:21;14.50;1.00
5842;DHT22;2947;52.276;9.946;2023-05-07T14:48:46;14.50;1.00
5842;DHT22;2947;52.276;9.946;2023-05-07T14:51:13;14.60;1.00
5842;DHT22;2947;52.276;9.946;2023-05-07T14:53:40;14.50;1.00
5842;DHT22;2947;52.276;9.946;2023-05-07T14:56:07;14.50;1.00
5842;DHT22;2947;52.276;9.946;2023-05-07T14:58:34;14.40;1.00
5842;DHT22;2947;52.276;9.946;2023-05-07T15:01:00;14.50;1.00
5842;DHT22;2947;52.276;9.946;2023-05-07T15:03:26;14.50;1.00
5842;DHT22;2947;52.276;9.946;2023-05-07T15:05:52;14.40;1.00
5842;DHT22;2947;52.276;9.946;2023-05-07T15:08:18;14.40;1.00
5842;DHT22;2947;52.276;9.946;2023-05-07T15:10:44;14.80;1.00
5842;DHT22;2947;52.276;9.946;2023-05-07T15:13:10;14.40;1.00
5842;DHT22;2947;52.276;9.946;2023-05-07T15:15:38;14.30;1.00
5842;DHT22;2947;52.276;9.946;2023-05-07T15:18:04;14.30;1.00
5842;DHT22;2947;52.276;9.946;2023-05-07T15:20:30;14.20;1.00
5842;DHT22;2947;52.276;9.946;2023-05-07T15:22:56;14.20;1.00
5842;DHT22;2947;52.276;9.946;2023-05-07T15:25:22;14.10;1.00
5842;DHT22;2947;52.276;9.946;2023-05-07T15:27:48;14.10;1.00
5842;DHT22;2947;52.276;9.946;2023-05-07T15:30:14;14.10;1.00
5842;DHT22;2947;52.276;9.946;2023-05-07T15:32:41;14.10;1.00
5842;DHT22;2947;52.276;9.946;2023-05-07T15:35:07;14.10;1.00
5842;DHT22;2947;52.276;9.946;2023-05-07T15:37:34;14.00;1.00
5842;DHT22;2947;52.276;9.946;2023-05-07T15:40:00;14.10;1.00
5842;DHT22;2947;52.276;9.946;2023-05-07T15:42:27;14.10;1.00
5842;DHT22;2947;52.276;9.946;2023-05-07T15:44:53;14.10;1.00
5842;DHT22;2947;52.276;9.946;2023-05-07T15:47:19;14.10;1.00
5842;DHT22;2947;52.276;9.946;2023-05-07T15:49:45;14.10;1.00
5842;DHT22;2947;52.276;9.946;2023-05-07T15:52:10;14.10;1.00
5842;DHT22;2947;52.276;9.946;2023-05-07T15:54:39;14.10;1.00
5842;DHT22;2947;52.276;9.946;2023-05-07T15:57:05;14.10;1.00
5842;DHT22;2947;52.276;9.946;2023-05-07T15:59:32;14.10;1.00
5842;DHT22;2947;52.276;9.946;2023-05-07T16:01:58;14.00;1.00
5842;DHT22;2947;52.276;9.946;2023-05-07T16:04:24;14.00;1.00
5842;DHT22;2947;52.276;9.946;2023-05-07T16:06:52;13.90;1.00
5842;DHT22;2947;52.276;9.946;2023-05-07T16:09:18;14.00;1.00
5842;DHT22;2947;52.276;9.946;2023-05-07T16:11:44;14.00;1.00
5842;DHT22;2947;52.276;9.946;2023-05-07T16:14:10;13.90;1.00
5842;DHT22;2947;52.276;9.946;2023-05-07T16:16:36;13.90;1.00
5842;DHT22;2947;52.276;9.946;2023-05-07T16:19:03;13.90;1.00
5842;DHT22;2947;52.276;9.946;2023-05-07T16:21:30;13.90;1.00
5842;DHT22;2947;52.276;9.946;2023-05-07T16:23:55;13.90;1.00
5842;DHT22;2947;52.276;9.946;2023-05-07T16:26:21;13.80;1.00
5842;DHT22;2947;52.276;9.946;2023-05-07T16:28:47;13.90;1.00